sensor_id;sensor_type;location;lat;lon;timestamp;P1;durP1;ratioP1;P2;durP2;ratioP2
40601;SDS011;26310;50.278;19.032;2022-09-03T03:04:31;4.90;;;2.50;;
40601;SDS011;26310;50.278;19.032;2022-09-03T03:09:45;6.33;;;2.50;;
40601;SDS011;26310;50.278;19.032;2022-09-03T03:14:59;3.20;;;2.10;;
40601;SDS011;26310;50.278;19.032;2022-09-03T03:20:15;6.20;;;2.00;;
40601;SDS011;26310;50.278;19.032;2022-09-03T03:25:24;3.07;;;2.20;;
40601;SDS011;26310;50.278;19.032;2022-09-03T03:30:39;4.87;;;2.27;;
40601;SDS011;26310;50.278;19.032;2022-09-03T03:36:06;4.47;;;2.40;;
40601;SDS011;26310;50.278;19.032;2022-09-03T03:41:27;4.57;;;2.43;;
40601;SDS011;26310;50.278;19.032;2022-09-03T03:47:05;4.80;;;2.30;;
40601;SDS011;26310;50.278;19.032;2022-09-03T03:52:28;6.00;;;3.00;;
40601;SDS011;26310;50.278;19.032;2022-09-03T03:57:43;5.47;;;2.90;;
40601;SDS011;26310;50.278;19.032;2022-09-03T04:02:58;5.00;;;2.40;;
40601;SDS011;26310;50.278;19.032;2022-09-03T04:08:22;4.77;;;2.37;;
40601;SDS011;26310;50.278;19.032;2022-09-03T04:13:46;3.87;;;2.30;;
40601;SDS011;26310;50.278;19.032;2022-09-03T04:18:59;4.67;;;2.50;;
40601;SDS011;26310;50.278;19.032;2022-09-03T04:24:22;4.27;;;2.57;;
40601;SDS011;26310;50.278;19.032;2022-09-03T04:29:46;4.30;;;2.57;;
40601;SDS011;26310;50.278;19.032;2022-09-03T04:35:04;3.53;;;2.17;;
40601;SDS011;26310;50.278;19.032;2022-09-03T04:40:15;6.07;;;2.40;;
40601;SDS011;26310;50.278;19.032;2022-09-03T04:45:27;5.73;;;2.70;;
40601;SDS011;26310;50.278;19.032;2022-09-03T04:50:42;4.07;;;2.20;;
40601;SDS011;26310;50.278;19.032;2022-09-03T04:55:48;3.90;;;2.40;;
40601;SDS011;26310;50.278;19.032;2022-09-03T05:01:18;5.87;;;2.63;;
40601;SDS011;26310;50.278;19.032;2022-09-03T05:06:38;6.20;;;2.53;;
40601;SDS011;26310;50.278;19.032;2022-09-03T05:12:11;4.97;;;2.63;;
40601;SDS011;26310;50.278;19.032;2022-09-03T05:17:22;7.40;;;3.03;;
40601;SDS011;26310;50.278;19.032;2022-09-03T05:22:25;4.93;;;2.50;;
40601;SDS011;26310;50.278;19.032;2022-09-03T05:27:41;5.63;;;2.93;;
40601;SDS011;26310;50.278;19.032;2022-09-03T05:32:51;5.50;;;3.33;;
40601;SDS011;26310;50.278;19.032;2022-09-03T05:38:03;7.00;;;2.90;;
40601;SDS011;26310;50.278;19.032;2022-09-03T05:43:12;8.40;;;2.77;;
40601;SDS011;26310;50.278;19.032;2022-09-03T05:48:18;5.20;;;2.60;;
40601;SDS011;26310;50.278;19.032;2022-09-03T05:53:28;3.70;;;2.67;;
40601;SDS011;26310;50.278;19.032;2022-09-03T05:58:41;6.10;;;2.90;;
40601;SDS011;26310;50.278;19.032;2022-09-03T06:03:51;4.33;;;2.23;;
40601;SDS011;26310;50.278;19.032;2022-09-03T06:09:22;4.20;;;2.87;;
40601;SDS011;26310;50.278;19.032;2022-09-03T06:14:25;5.63;;;2.20;;
40601;SDS011;26310;50.278;19.032;2022-09-03T06:19:29;4.53;;;2.67;;
40601;SDS011;26310;50.278;19.032;2022-09-03T06:24:41;5.93;;;2.77;;
40601;SDS011;26310;50.278;19.032;2022-09-03T06:29:55;6.13;;;3.20;;
40601;SDS011;26310;50.278;19.032;2022-09-03T06:35:09;4.07;;;2.70;;
40601;SDS011;26310;50.278;19.032;2022-09-03T06:40:13;6.70;;;3.13;;
40601;SDS011;26310;50.278;19.032;2022-09-03T06:45:26;8.60;;;3.33;;
40601;SDS011;26310;50.278;19.032;2022-09-03T06:50:36;6.90;;;2.70;;
40601;SDS011;26310;50.278;19.032;2022-09-03T06:55:41;5.10;;;3.10;;
40601;SDS011;26310;50.278;19.032;2022-09-03T07:00:46;4.97;;;2.70;;
40601;SDS011;26310;50.278;19.032;2022-09-03T07:05:50;4.77;;;2.40;;
40601;SDS011;26310;50.278;19.032;2022-09-03T07:10:54;5.57;;;3.23;;
40601;SDS011;26310;50.278;19.032;2022-09-03T07:16:31;3.77;;;2.47;;
40601;SDS011;26310;50.278;19.032;2022-09-03T07:21:31;4.30;;;2.90;;
40601;SDS011;26310;50.278;19.032;2022-09-03T07:26:38;6.27;;;3.13;;
40601;SDS011;26310;50.278;19.032;2022-09-03T07:31:44;5.57;;;2.73;;
40601;SDS011;26310;50.278;19.032;2022-09-03T07:36:48;3.40;;;2.13;;
40601;SDS011;26310;50.278;19.032;2022-09-03T07:41:52;6.00;;;2.53;;
40601;SDS011;26310;50.278;19.032;2022-09-03T07:46:56;3.00;;;2.43;;
40601;SDS011;26310;50.278;19.032;2022-09-03T07:51:59;4.07;;;2.13;;
40601;SDS011;26310;50.278;19.032;2022-09-03T07:57:04;2.40;;;1.90;;
40601;SDS011;26310;50.278;19.032;2022-09-03T08:02:08;5.97;;;2.33;;
40601;SDS011;26310;50.278;19.032;2022-09-03T08:07:11;5.27;;;2.40;;
40601;SDS011;26310;50.278;19.032;2022-09-03T08:12:14;3.47;;;2.10;;
40601;SDS011;26310;50.278;19.032;2022-09-03T08:17:17;3.27;;;2.13;;
40601;SDS011;26310;50.278;19.032;2022-09-03T08:22:20;3.27;;;2.10;;
40601;SDS011;26310;50.278;19.032;2022-09-03T08:27:26;6.43;;;2.30;;
40601;SDS011;26310;50.278;19.032;2022-09-03T08:32:34;3.07;;;2.20;;
40601;SDS011;26310;50.278;19.032;2022-09-03T08:37:37;4.23;;;2.40;;
40601;SDS011;26310;50.278;19.032;2022-09-03T08:53:39;4.30;;;2.40;;
40601;SDS011;26310;50.278;19.032;2022-09-03T08:58:50;5.33;;;2.50;;
40601;SDS011;26310;50.278;19.032;2022-09-03T09:03:58;3.63;;;2.50;;
40601;SDS011;26310;50.278;19.032;2022-09-03T09:14:34;4.10;;;2.53;;
40601;SDS011;26310;50.278;19.032;2022-09-03T09:20:23;3.77;;;2.20;;
40601;SDS011;26310;50.278;19.032;2022-09-03T09:25:14;4.17;;;2.70;;
40601;SDS011;26310;50.278;19.032;2022-09-03T09:30:23;4.87;;;2.90;;
40601;SDS011;26310;50.278;19.032;2022-09-03T09:35:28;6.00;;;3.40;;
40601;SDS011;26310;50.278;19.032;2022-09-03T09:40:33;3.53;;;2.83;;
40601;SDS011;26310;50.278;19.032;2022-09-03T09:45:47;3.47;;;2.53;;
40601;SDS011;26310;50.278;19.032;2022-09-03T09:51:16;4.30;;;2.40;;
40601;SDS011;26310;50.278;19.032;2022-09-03T09:56:23;3.83;;;2.73;;
40601;SDS011;26310;50.278;19.032;2022-09-03T10:01:26;3.37;;;2.50;;
40601;SDS011;26310;50.278;19.032;2022-09-03T10:06:32;3.33;;;2.67;;
40601;SDS011;26310;50.278;19.032;2022-09-03T10:12:00;5.30;;;2.93;;
40601;SDS011;26310;50.278;19.032;2022-09-03T10:17:20;3.90;;;2.90;;
40601;SDS011;26310;50.278;19.032;2022-09-03T10:23:06;4.33;;;3.00;;
40601;SDS011;26310;50.278;19.032;2022-09-03T10:28:23;4.87;;;2.90;;
40601;SDS011;26310;50.278;19.032;2022-09-03T10:33:38;4.27;;;3.07;;
40601;SDS011;26310;50.278;19.032;2022-09-03T10:38:57;4.00;;;3.40;;
40601;SDS011;26310;50.278;19.032;2022-09-03T10:50:01;3.43;;;2.40;;
40601;SDS011;26310;50.278;19.032;2022-09-03T10:55:28;3.80;;;2.40;;
40601;SDS011;26310;50.278;19.032;2022-09-03T11:00:45;3.10;;;2.10;;
40601;SDS011;26310;50.278;19.032;2022-09-03T11:11:31;3.93;;;2.67;;
40601;SDS011;26310;50.278;19.032;2022-09-03T11:16:39;3.10;;;2.80;;
40601;SDS011;26310;50.278;19.032;2022-09-03T11:21:52;3.60;;;2.73;;
40601;SDS011;26310;50.278;19.032;2022-09-03T11:32:19;3.20;;;2.83;;
40601;SDS011;26310;50.278;19.032;2022-09-03T11:37:25;5.37;;;3.23;;
40601;SDS011;26310;50.278;19.032;2022-09-03T11:42:37;5.20;;;3.40;;
40601;SDS011;26310;50.278;19.032;2022-09-03T11:47:43;3.90;;;2.90;;
40601;SDS011;26310;50.278;19.032;2022-09-03T11:52:48;4.10;;;3.13;;
40601;SDS011;26310;50.278;19.032;2022-09-03T11:57:54;6.03;;;2.90;;
40601;SDS011;26310;50.278;19.032;2022-09-03T12:03:00;5.63;;;3.67;;
40601;SDS011;26310;50.278;19.032;2022-09-03T12:13:42;4.50;;;4.03;;
40601;SDS011;26310;50.278;19.032;2022-09-03T12:24:33;6.10;;;4.43;;
40601;SDS011;26310;50.278;19.032;2022-09-03T12:29:48;4.53;;;3.40;;
40601;SDS011;26310;50.278;19.032;2022-09-03T12:40:42;4.10;;;3.03;;
40601;SDS011;26310;50.278;19.032;2022-09-03T12:46:12;5.60;;;3.90;;
40601;SDS011;26310;50.278;19.032;2022-09-03T12:51:17;4.40;;;2.90;;
40601;SDS011;26310;50.278;19.032;2022-09-03T12:56:41;13.47;;;6.87;;
40601;SDS011;26310;50.278;19.032;2022-09-03T13:01:48;6.73;;;5.27;;
40601;SDS011;26310;50.278;19.032;2022-09-03T13:07:03;6.57;;;4.47;;
40601;SDS011;26310;50.278;19.032;2022-09-03T13:12:22;6.00;;;3.63;;
40601;SDS011;26310;50.278;19.032;2022-09-03T13:23:12;5.13;;;3.37;;
40601;SDS011;26310;50.278;19.032;2022-09-03T13:33:42;4.00;;;3.10;;
40601;SDS011;26310;50.278;19.032;2022-09-03T13:38:50;5.73;;;3.10;;
40601;SDS011;26310;50.278;19.032;2022-09-03T13:49:54;4.53;;;2.73;;
40601;SDS011;26310;50.278;19.032;2022-09-03T14:00:49;4.17;;;2.77;;
40601;SDS011;26310;50.278;19.032;2022-09-03T14:06:17;4.15;;;2.50;;
40601;SDS011;26310;50.278;19.032;2022-09-03T14:11:34;3.40;;;2.97;;
40601;SDS011;26310;50.278;19.032;2022-09-03T14:27:55;4.68;;;2.95;;
40601;SDS011;26310;50.278;19.032;2022-09-03T14:33:22;2.83;;;2.47;;
40601;SDS011;26310;50.278;19.032;2022-09-03T15:00:18;5.47;;;3.63;;
40601;SDS011;26310;50.278;19.032;2022-09-03T15:05:32;9.87;;;3.30;;
40601;SDS011;26310;50.278;19.032;2022-09-03T15:11:09;4.83;;;3.43;;
40601;SDS011;26310;50.278;19.032;2022-09-03T15:16:38;5.00;;;3.57;;
40601;SDS011;26310;50.278;19.032;2022-09-03T15:27:05;5.00;;;3.20;;
40601;SDS011;26310;50.278;19.032;2022-09-03T15:37:58;4.50;;;3.20;;
40601;SDS011;26310;50.278;19.032;2022-09-03T15:43:08;6.07;;;3.43;;
40601;SDS011;26310;50.278;19.032;2022-09-03T15:59:13;4.37;;;3.10;;
40601;SDS011;26310;50.278;19.032;2022-09-03T16:15:27;5.18;;;3.17;;
40601;SDS011;26310;50.278;19.032;2022-09-03T16:20:59;6.33;;;3.73;;
40601;SDS011;26310;50.278;19.032;2022-09-03T16:26:28;4.85;;;3.03;;
40601;SDS011;26310;50.278;19.032;2022-09-03T16:31:42;3.95;;;3.00;;
40601;SDS011;26310;50.278;19.032;2022-09-03T16:42:40;6.97;;;4.85;;
40601;SDS011;26310;50.278;19.032;2022-09-03T17:03:44;5.00;;;3.57;;
40601;SDS011;26310;50.278;19.032;2022-09-03T17:09:08;6.13;;;4.23;;
40601;SDS011;26310;50.278;19.032;2022-09-03T17:24:41;10.37;;;5.80;;
40601;SDS011;26310;50.278;19.032;2022-09-03T17:30:04;6.67;;;4.30;;
40601;SDS011;26310;50.278;19.032;2022-09-03T17:45:52;5.40;;;4.00;;
40601;SDS011;26310;50.278;19.032;2022-09-03T18:02:24;6.60;;;4.03;;
40601;SDS011;26310;50.278;19.032;2022-09-03T18:18:10;10.47;;;4.50;;
40601;SDS011;26310;50.278;19.032;2022-09-03T18:23:21;5.60;;;4.23;;
40601;SDS011;26310;50.278;19.032;2022-09-03T18:28:56;6.07;;;4.20;;
40601;SDS011;26310;50.278;19.032;2022-09-03T18:34:25;7.27;;;4.30;;
40601;SDS011;26310;50.278;19.032;2022-09-03T18:39:50;6.00;;;4.40;;
40601;SDS011;26310;50.278;19.032;2022-09-03T18:51:30;7.73;;;4.33;;
40601;SDS011;26310;50.278;19.032;2022-09-03T18:57:04;7.30;;;4.60;;
40601;SDS011;26310;50.278;19.032;2022-09-03T19:08:25;6.30;;;4.73;;
40601;SDS011;26310;50.278;19.032;2022-09-03T19:14:03;6.43;;;4.37;;
40601;SDS011;26310;50.278;19.032;2022-09-03T19:19:34;8.43;;;5.50;;
40601;SDS011;26310;50.278;19.032;2022-09-03T19:25:13;9.17;;;5.50;;
40601;SDS011;26310;50.278;19.032;2022-09-03T19:36:24;7.63;;;5.30;;
40601;SDS011;26310;50.278;19.032;2022-09-03T19:42:10;9.60;;;4.97;;
40601;SDS011;26310;50.278;19.032;2022-09-03T19:53:38;9.13;;;4.33;;
40601;SDS011;26310;50.278;19.032;2022-09-03T19:59:05;8.23;;;4.63;;
40601;SDS011;26310;50.278;19.032;2022-09-03T20:04:37;7.33;;;4.90;;
40601;SDS011;26310;50.278;19.032;2022-09-03T20:10:14;7.73;;;4.60;;
40601;SDS011;26310;50.278;19.032;2022-09-03T20:15:25;6.03;;;4.20;;
40601;SDS011;26310;50.278;19.032;2022-09-03T20:26:12;6.20;;;4.17;;
40601;SDS011;26310;50.278;19.032;2022-09-03T20:48:01;7.83;;;5.37;;
40601;SDS011;26310;50.278;19.032;2022-09-03T21:03:57;6.03;;;4.67;;
40601;SDS011;26310;50.278;19.032;2022-09-03T21:09:17;8.47;;;6.23;;
40601;SDS011;26310;50.278;19.032;2022-09-03T21:14:40;13.37;;;9.60;;
40601;SDS011;26310;50.278;19.032;2022-09-03T21:20:06;11.40;;;8.77;;
40601;SDS011;26310;50.278;19.032;2022-09-03T21:30:57;13.93;;;10.00;;
40601;SDS011;26310;50.278;19.032;2022-09-03T21:36:04;14.93;;;11.70;;
40601;SDS011;26310;50.278;19.032;2022-09-03T21:41:37;13.47;;;10.30;;
40601;SDS011;26310;50.278;19.032;2022-09-03T21:52:00;12.93;;;8.03;;
40601;SDS011;26310;50.278;19.032;2022-09-03T22:02:58;9.90;;;7.13;;
40601;SDS011;26310;50.278;19.032;2022-09-03T22:13:13;11.90;;;7.50;;
40601;SDS011;26310;50.278;19.032;2022-09-03T22:18:26;13.97;;;7.43;;
40601;SDS011;26310;50.278;19.032;2022-09-03T22:23:33;9.97;;;7.00;;
40601;SDS011;26310;50.278;19.032;2022-09-03T22:28:47;9.40;;;7.33;;
40601;SDS011;26310;50.278;19.032;2022-09-03T22:39:44;12.77;;;7.23;;
40601;SDS011;26310;50.278;19.032;2022-09-03T22:50:02;7.90;;;5.73;;
40601;SDS011;26310;50.278;19.032;2022-09-03T22:55:19;10.67;;;6.63;;
40601;SDS011;26310;50.278;19.032;2022-09-03T23:00:23;12.80;;;7.77;;
40601;SDS011;26310;50.278;19.032;2022-09-03T23:10:57;16.33;;;11.20;;
40601;SDS011;26310;50.278;19.032;2022-09-03T23:16:10;20.47;;;14.97;;
40601;SDS011;26310;50.278;19.032;2022-09-03T23:21:17;21.07;;;15.27;;
40601;SDS011;26310;50.278;19.032;2022-09-03T23:26:45;19.60;;;15.07;;
